createdAt,value
2018-11-26T00:01:09.209Z,3.20
2018-11-26T00:26:18.028Z,2.20
2018-11-26T00:29:25.751Z,2.10
2018-11-26T00:36:51.901Z,2.00
2018-11-26T00:50:52.919Z,1.80
2018-11-26T01:07:32.577Z,1.70
2018-11-26T01:27:33.622Z,1.70
2018-11-26T01:30:25.445Z,1.60
2018-11-26T01:33:52.363Z,1.60
2018-11-26T01:40:09.165Z,1.40
2018-11-26T01:43:25.589Z,1.40
2018-11-26T01:46:17.050Z,1.50
2018-11-26T01:49:45.467Z,1.40
2018-11-26T02:24:01.238Z,2.00
2018-11-26T02:37:44.717Z,1.90
2018-11-26T02:44:33.013Z,1.40
2018-11-26T02:47:26.963Z,1.40
2018-11-26T02:50:53.328Z,1.50
2018-11-26T02:53:52.087Z,1.50
2018-11-26T02:56:54.270Z,1.50
2018-11-26T03:07:36.776Z,1.70
2018-11-26T03:10:06.414Z,1.90
2018-11-26T03:12:35.088Z,1.90
2018-11-26T03:15:03.552Z,2.10
2018-11-26T03:17:32.150Z,2.20
2018-11-26T03:20:00.884Z,2.00
2018-11-26T03:22:29.405Z,1.90
2018-11-26T03:24:58.161Z,1.80
2018-11-26T03:27:26.912Z,1.60
2018-11-26T03:29:55.526Z,1.50
2018-11-26T03:32:24.221Z,1.50
2018-11-26T03:34:52.867Z,2.00
2018-11-26T03:37:21.492Z,1.90
2018-11-26T03:39:50.136Z,2.00
2018-11-26T03:42:18.654Z,1.90
2018-11-26T03:44:47.237Z,1.90
2018-11-26T03:47:15.925Z,1.70
2018-11-26T03:49:44.549Z,1.70
2018-11-26T03:52:13.254Z,1.90
2018-11-26T03:54:41.932Z,1.90
2018-11-26T03:57:10.596Z,1.80
2018-11-26T03:59:39.546Z,1.70
2018-11-26T04:02:08.096Z,1.60
2018-11-26T04:04:36.697Z,2.30
2018-11-26T04:07:05.657Z,2.00
2018-11-26T04:09:34.240Z,1.90
2018-11-26T04:12:02.921Z,1.70
2018-11-26T04:14:31.646Z,1.70
2018-11-26T04:17:03.934Z,1.60
2018-11-26T04:19:32.684Z,1.50
2018-11-26T04:22:01.293Z,1.60
2018-11-26T04:24:30.000Z,1.60
2018-11-26T04:26:58.682Z,1.60
2018-11-26T04:29:27.360Z,1.80
2018-11-26T04:31:56.014Z,1.80
2018-11-26T04:34:24.709Z,1.90
2018-11-26T04:36:53.313Z,2.00
2018-11-26T04:39:22.061Z,2.10
2018-11-26T04:41:50.624Z,2.30
2018-11-26T04:44:19.259Z,2.00
2018-11-26T04:46:47.934Z,1.90
2018-11-26T04:49:16.600Z,1.90
2018-11-26T04:51:45.227Z,2.20
2018-11-26T04:54:13.870Z,2.20
2018-11-26T04:56:42.454Z,2.40
2018-11-26T04:59:11.305Z,2.60
2018-11-26T05:01:39.940Z,2.40
2018-11-26T05:04:08.590Z,2.30
2018-11-26T05:06:37.234Z,2.50
2018-11-26T05:09:08.505Z,2.30
2018-11-26T05:11:37.682Z,2.20
2018-11-26T05:14:06.364Z,2.10
2018-11-26T05:16:34.918Z,1.90
2018-11-26T05:19:03.620Z,1.80
2018-11-26T05:21:32.461Z,1.70
2018-11-26T05:24:01.083Z,1.70
2018-11-26T05:26:29.772Z,1.60
2018-11-26T05:28:58.312Z,1.60
2018-11-26T05:31:26.835Z,1.60
2018-11-26T05:33:55.361Z,1.60
2018-11-26T05:36:24.114Z,1.70
2018-11-26T05:38:53.179Z,1.70
2018-11-26T05:41:21.972Z,1.60
2018-11-26T05:43:58.483Z,1.70
2018-11-26T05:46:27.629Z,1.70
2018-11-26T05:48:56.394Z,1.70
2018-11-26T05:51:25.249Z,1.70
2018-11-26T05:53:54.062Z,1.80
2018-11-26T05:56:25.441Z,1.80
2018-11-26T05:58:54.057Z,1.80
2018-11-26T06:01:22.612Z,1.80
2018-11-26T06:03:51.615Z,1.90
2018-11-26T06:06:20.236Z,2.00
2018-11-26T06:08:48.938Z,2.00
2018-11-26T06:11:20.569Z,2.00
2018-11-26T06:13:49.166Z,2.00
2018-11-26T06:16:17.828Z,2.00
2018-11-26T06:18:49.326Z,2.00
2018-11-26T06:21:18.033Z,2.00
2018-11-26T06:23:54.144Z,2.00
2018-11-26T06:26:18.080Z,2.00
2018-11-26T06:28:49.273Z,2.00
2018-11-26T06:31:18.622Z,2.00
2018-11-26T06:33:47.205Z,2.10
2018-11-26T06:36:23.631Z,2.10
2018-11-26T06:39:16.407Z,2.10
2018-11-26T06:42:07.233Z,2.00
2018-11-26T07:41:03.761Z,2.20
2018-11-26T07:43:51.217Z,2.20
2018-11-26T07:46:19.813Z,2.30
2018-11-26T07:48:48.467Z,2.40
2018-11-26T07:51:17.065Z,2.40
2018-11-26T07:53:45.721Z,2.40
2018-11-26T07:56:14.392Z,2.50
2018-11-26T07:58:43.009Z,2.50
2018-11-26T08:06:42.465Z,2.50
2018-11-26T08:09:14.161Z,2.60
2018-11-26T08:11:43.957Z,2.50
2018-11-26T08:14:12.565Z,2.50
2018-11-26T08:16:41.267Z,2.50
2018-11-26T08:19:09.858Z,2.50
2018-11-26T08:21:38.717Z,2.60
2018-11-26T08:24:07.709Z,2.60
2018-11-26T08:26:36.844Z,2.60
2018-11-26T08:29:06.207Z,2.60
2018-11-26T08:31:35.043Z,2.60
2018-11-26T08:34:03.740Z,2.60
2018-11-26T08:36:44.894Z,2.60
2018-11-26T08:39:20.675Z,2.60
2018-11-26T08:41:54.725Z,2.60
2018-11-26T08:44:40.917Z,2.60
2018-11-26T08:47:27.031Z,2.60
2018-11-26T08:49:56.232Z,2.60
2018-11-26T08:52:24.977Z,2.60
2018-11-26T08:54:53.703Z,2.60
2018-11-26T08:57:22.247Z,2.60
